Time;durP1;ratioP1;P1;durP2;ratioP2;P2;SDS_P1;SDS_P2;PMS_P1;PMS_P2;Temp;Humidity;BMP_temperature;BMP_pressure;BME280_temperature;BME280_humidity;BME280_pressure;Samples;Min_cycle;Max_cycle;Signal;HPM_P1;HPM_P2
2022/04/18 00:00:03;;;;;;;7.53;3.80;;;;;;;;;;5049703;28;20076;-64
2022/04/18 00:02:29;;;;;;;10.98;4.50;;;;;;;;;;5049476;28;20049;-64
2022/04/18 00:04:55;;;;;;;10.60;3.83;;;;;;;;;;5031937;28;20041;-64
2022/04/18 00:07:21;;;;;;;8.95;4.30;;;;;;;;;;5049970;28;20499;-64
2022/04/18 00:09:47;;;;;;;7.43;3.70;;;;;;;;;;5049903;28;20074;-64
2022/04/18 00:12:14;;;;;;;11.95;4.38;;;;;;;;;;5049069;28;20420;-64
2022/04/18 00:14:40;;;;;;;7.35;3.85;;;;;;;;;;5049865;28;20056;-64
2022/04/18 00:17:09;;;;;;;8.77;3.88;;;;;;;;;;5049074;28;20509;-64
2022/04/18 00:19:38;;;;;;;6.22;4.00;;;;;;;;;;5049350;28;20053;-64
2022/04/18 00:22:05;;;;;;;10.63;3.80;;;;;;;;;;5049061;28;20495;-64
2022/04/18 00:24:31;;;;;;;8.10;3.88;;;;;;;;;;5031563;28;20053;-64
2022/04/18 00:26:58;;;;;;;6.53;4.03;;;;;;;;;;5031760;28;20041;-64
2022/04/18 00:29:24;;;;;;;7.80;4.47;;;;;;;;;;5049445;28;20049;-65
2022/04/18 00:31:50;;;;;;;7.10;4.10;;;;;;;;;;5030896;28;20049;-65
2022/04/18 00:34:19;;;;;;;6.15;3.88;;;;;;;;;;5049134;28;20041;-65
2022/04/18 00:36:45;;;;;;;7.28;4.63;;;;;;;;;;5027978;28;20100;-65
2022/04/18 00:39:11;;;;;;;6.38;3.65;;;;;;;;;;5028775;28;20053;-65
2022/04/18 00:41:38;;;;;;;6.82;3.60;;;;;;;;;;5029649;28;20056;-64
2022/04/18 00:44:04;;;;;;;6.60;4.13;;;;;;;;;;5029600;28;20155;-63
2022/04/18 00:46:30;;;;;;;8.20;4.25;;;;;;;;;;5029307;28;20045;-64
2022/04/18 00:48:56;;;;;;;6.72;4.00;;;;;;;;;;5028941;28;20364;-64
2022/04/18 00:51:25;;;;;;;7.20;4.15;;;;;;;;;;5029167;28;20041;-65
2022/04/18 00:53:53;;;;;;;6.68;3.90;;;;;;;;;;5028836;28;20045;-65
2022/04/18 00:56:20;;;;;;;7.20;4.22;;;;;;;;;;5029140;28;20037;-65
2022/04/18 00:58:47;;;;;;;7.00;3.67;;;;;;;;;;5029154;28;20056;-65
2022/04/18 01:01:14;;;;;;;6.70;4.05;;;;;;;;;;5029005;28;20041;-65
2022/04/18 01:03:40;;;;;;;7.25;4.22;;;;;;;;;;5029096;28;20041;-65
2022/04/18 01:06:07;;;;;;;8.73;3.90;;;;;;;;;;5028836;28;20092;-65
2022/04/18 01:08:36;;;;;;;10.02;4.32;;;;;;;;;;5029026;28;20400;-65
2022/04/18 01:11:07;;;;;;;5.93;3.90;;;;;;;;;;5028153;28;20056;-65
2022/04/18 01:13:48;;;;;;;6.65;4.10;;;;;;;;;;5029201;28;20048;-65
2022/04/18 01:16:14;;;;;;;6.53;3.88;;;;;;;;;;5028675;28;20057;-65
2022/04/18 01:18:41;;;;;;;8.02;4.30;;;;;;;;;;5029220;28;20361;-65
2022/04/18 01:21:08;;;;;;;7.93;4.43;;;;;;;;;;5027662;28;20399;-65
2022/04/18 01:23:34;;;;;;;8.95;4.15;;;;;;;;;;5027574;28;20060;-65
2022/04/18 01:28:58;;;;;;;6.28;3.83;;;;;;;;;;5028435;28;20060;-65
2022/04/18 01:31:25;;;;;;;5.30;3.72;;;;;;;;;;5028984;28;20045;-65
2022/04/18 01:33:51;;;;;;;5.70;3.63;;;;;;;;;;5028689;28;20052;-65
2022/04/18 01:36:17;;;;;;;6.15;4.18;;;;;;;;;;5039548;28;20144;-65
2022/04/18 01:38:43;;;;;;;7.55;4.05;;;;;;;;;;5047425;28;20045;-65
2022/04/18 01:41:09;;;;;;;5.93;3.60;;;;;;;;;;5048168;28;20056;-65
2022/04/18 01:43:36;;;;;;;6.82;3.58;;;;;;;;;;5031308;28;20041;-65
2022/04/18 01:46:02;;;;;;;6.03;3.70;;;;;;;;;;5030745;28;20049;-65
2022/04/18 01:48:28;;;;;;;6.22;4.30;;;;;;;;;;5048321;28;20056;-65
2022/04/18 01:50:54;;;;;;;5.47;3.72;;;;;;;;;;5048379;28;20458;-65
2022/04/18 01:53:20;;;;;;;7.32;4.45;;;;;;;;;;5048462;28;20067;-65
2022/04/18 01:55:46;;;;;;;8.23;4.80;;;;;;;;;;5048101;28;20118;-67
2022/04/18 01:58:13;;;;;;;8.70;4.40;;;;;;;;;;5048434;28;20052;-66
2022/04/18 02:00:39;;;;;;;10.98;4.30;;;;;;;;;;5030506;28;20132;-64
2022/04/18 02:03:05;;;;;;;11.52;4.55;;;;;;;;;;5048292;28;20099;-65
2022/04/18 02:05:31;;;;;;;8.50;3.88;;;;;;;;;;5029829;28;20040;-64
2022/04/18 02:07:58;;;;;;;7.05;4.18;;;;;;;;;;5048468;28;20427;-65
2022/04/18 02:10:24;;;;;;;7.53;4.55;;;;;;;;;;5048379;28;20063;-64
2022/04/18 02:12:50;;;;;;;8.65;4.50;;;;;;;;;;5048138;28;20052;-64
2022/04/18 02:15:17;;;;;;;8.18;4.57;;;;;;;;;;5047839;28;20107;-64
2022/04/18 02:17:43;;;;;;;5.72;3.88;;;;;;;;;;5048092;28;20083;-64
2022/04/18 02:20:09;;;;;;;7.35;4.00;;;;;;;;;;5047826;28;20589;-64
2022/04/18 02:22:35;;;;;;;6.18;4.03;;;;;;;;;;5048541;28;20049;-64
2022/04/18 02:25:02;;;;;;;8.65;4.05;;;;;;;;;;5047772;28;20131;-65
2022/04/18 02:27:28;;;;;;;6.50;4.20;;;;;;;;;;5048062;28;20495;-64
2022/04/18 02:29:54;;;;;;;10.43;4.55;;;;;;;;;;5048121;28;20041;-64
2022/04/18 02:35:06;;;;;;;7.70;4.35;;;;;;;;;;5047281;28;20053;-64
2022/04/18 02:37:32;;;;;;;6.05;3.60;;;;;;;;;;5030388;28;20410;-64
2022/04/18 02:39:59;;;;;;;7.40;3.95;;;;;;;;;;5048232;28;20071;-65
2022/04/18 02:42:26;;;;;;;6.88;4.05;;;;;;;;;;5050989;28;20522;-65
2022/04/18 02:44:52;;;;;;;5.88;4.22;;;;;;;;;;5051490;28;20471;-64
2022/04/18 02:47:19;;;;;;;8.40;4.22;;;;;;;;;;5051447;28;20419;-65
2022/04/18 02:49:45;;;;;;;6.70;4.00;;;;;;;;;;5051625;28;20135;-64
2022/04/18 02:52:11;;;;;;;7.15;4.10;;;;;;;;;;5051157;28;20092;-65
2022/04/18 02:54:38;;;;;;;7.68;4.47;;;;;;;;;;5050867;28;20494;-65
2022/04/18 02:57:04;;;;;;;8.18;4.07;;;;;;;;;;5051516;28;20038;-66
2022/04/18 02:59:30;;;;;;;6.82;3.80;;;;;;;;;;5051214;28;20049;-65
2022/04/18 03:01:56;;;;;;;7.55;3.95;;;;;;;;;;5051295;28;20071;-65
2022/04/18 03:04:22;;;;;;;9.25;4.32;;;;;;;;;;5032969;28;20057;-65
2022/04/18 03:06:48;;;;;;;9.50;4.80;;;;;;;;;;5051043;28;20544;-65
2022/04/18 03:09:15;;;;;;;9.85;4.50;;;;;;;;;;5050981;28;20049;-65
2022/04/18 03:11:41;;;;;;;32.90;5.45;;;;;;;;;;5051142;28;20058;-64
2022/04/18 03:14:07;;;;;;;5.80;3.65;;;;;;;;;;5050784;28;20041;-64
2022/04/18 03:16:34;;;;;;;7.10;3.97;;;;;;;;;;5050970;28;20048;-65
2022/04/18 03:19:00;;;;;;;6.80;3.90;;;;;;;;;;5050369;28;20114;-65
2022/04/18 03:21:26;;;;;;;6.57;4.30;;;;;;;;;;5050771;28;20061;-65
2022/04/18 03:23:53;;;;;;;8.52;4.15;;;;;;;;;;5050900;28;20521;-65
2022/04/18 03:26:19;;;;;;;6.45;3.95;;;;;;;;;;5050876;28;20044;-65
2022/04/18 03:28:46;;;;;;;7.07;3.72;;;;;;;;;;5050837;28;20087;-65
2022/04/18 03:31:12;;;;;;;6.28;4.10;;;;;;;;;;5050127;28;20045;-65
2022/04/18 03:33:38;;;;;;;6.45;3.80;;;;;;;;;;5050722;28;20499;-65
2022/04/18 03:41:35;;;;;;;6.57;4.45;;;;;;;;;;5018841;28;20056;-66
2022/04/18 03:44:01;;;;;;;8.38;4.18;;;;;;;;;;5050486;28;20041;-65
2022/04/18 03:46:27;;;;;;;7.25;4.07;;;;;;;;;;5050232;28;20097;-65
2022/04/18 03:48:54;;;;;;;7.07;4.60;;;;;;;;;;5050418;28;20416;-66
2022/04/18 03:51:20;;;;;;;6.93;4.25;;;;;;;;;;5050098;28;20048;-66
2022/04/18 03:53:46;;;;;;;8.35;4.57;;;;;;;;;;5049366;28;20037;-64
2022/04/18 03:56:12;;;;;;;6.93;3.85;;;;;;;;;;5032392;28;20232;-66
2022/04/18 03:58:39;;;;;;;10.35;4.63;;;;;;;;;;5032532;28;20056;-65
2022/04/18 04:01:05;;;;;;;7.25;4.10;;;;;;;;;;5049869;28;20049;-65
2022/04/18 04:03:31;;;;;;;8.20;4.25;;;;;;;;;;5050194;28;20583;-65
2022/04/18 04:05:57;;;;;;;6.20;3.80;;;;;;;;;;5050081;28;20136;-65
2022/04/18 04:08:24;;;;;;;6.95;4.32;;;;;;;;;;5049466;28;20055;-65
2022/04/18 04:10:50;;;;;;;6.25;3.75;;;;;;;;;;5050009;28;20045;-65
2022/04/18 04:13:17;;;;;;;6.72;4.38;;;;;;;;;;5049917;28;20462;-65
2022/04/18 04:15:43;;;;;;;7.13;4.20;;;;;;;;;;5050032;28;20060;-64
2022/04/18 04:18:09;;;;;;;6.22;3.92;;;;;;;;;;5049499;28;20049;-65
2022/04/18 04:20:36;;;;;;;7.10;3.80;;;;;;;;;;5032035;28;20107;-65
2022/04/18 04:23:02;;;;;;;6.63;3.95;;;;;;;;;;5049803;28;20773;-65
2022/04/18 04:25:28;;;;;;;7.55;5.00;;;;;;;;;;5049729;28;20075;-66
2022/04/18 04:27:54;;;;;;;6.38;4.32;;;;;;;;;;5049743;28;20083;-65
2022/04/18 04:30:20;;;;;;;8.38;4.80;;;;;;;;;;5049253;28;20041;-65
2022/04/18 04:32:48;;;;;;;5.72;4.30;;;;;;;;;;5049542;28;20055;-64
2022/04/18 04:35:14;;;;;;;7.32;4.05;;;;;;;;;;5049114;28;20140;-65
2022/04/18 04:37:40;;;;;;;5.80;3.92;;;;;;;;;;5049508;28;20049;-64
2022/04/18 04:40:08;;;;;;;6.22;3.78;;;;;;;;;;5049217;28;20147;-65
2022/04/18 04:42:34;;;;;;;10.57;4.25;;;;;;;;;;5047931;28;20522;-66
2022/04/18 04:45:00;;;;;;;13.20;4.57;;;;;;;;;;5031670;28;20045;-65
2022/04/18 04:47:26;;;;;;;11.98;4.20;;;;;;;;;;5049191;28;20506;-65
2022/04/18 04:49:53;;;;;;;10.40;4.05;;;;;;;;;;5049244;28;20045;-65
2022/04/18 04:52:22;;;;;;;7.85;3.70;;;;;;;;;;5049700;28;20053;-65
2022/04/18 04:54:49;;;;;;;;;;;;;;;;;;5049385;28;20048;-64
2022/04/18 04:57:15;;;;;;;7.53;4.50;;;;;;;;;;5031266;28;19921;-64
2022/04/18 04:59:41;;;;;;;7.40;4.25;;;;;;;;;;5049451;28;20418;-64
2022/04/18 05:02:07;;;;;;;18.77;4.72;;;;;;;;;;5049267;28;20041;-64
2022/04/18 05:04:33;;;;;;;7.88;4.18;;;;;;;;;;5048937;28;20037;-64
2022/04/18 05:06:59;;;;;;;8.27;4.18;;;;;;;;;;5049273;28;20037;-63
2022/04/18 05:09:25;;;;;;;7.78;4.38;;;;;;;;;;5048487;28;20041;-63
2022/04/18 05:11:52;;;;;;;7.72;4.20;;;;;;;;;;5049272;28;20049;-63
2022/04/18 05:14:19;;;;;;;8.50;4.80;;;;;;;;;;5049096;28;20052;-63
2022/04/18 05:16:45;;;;;;;10.70;4.45;;;;;;;;;;5048981;28;20044;-63
2022/04/18 05:19:11;;;;;;;9.43;4.30;;;;;;;;;;5048404;28;20308;-63
2022/04/18 05:21:37;;;;;;;7.80;3.97;;;;;;;;;;5049406;28;20060;-65
2022/04/18 05:24:03;;;;;;;7.03;4.22;;;;;;;;;;5048954;28;20053;-65
2022/04/18 05:26:29;;;;;;;10.32;3.80;;;;;;;;;;5049117;28;20495;-64
2022/04/18 05:28:55;;;;;;;6.60;4.00;;;;;;;;;;5048577;28;20037;-64
2022/04/18 05:31:21;;;;;;;6.43;3.97;;;;;;;;;;5049106;28;20044;-64
2022/04/18 05:33:48;;;;;;;7.18;3.88;;;;;;;;;;5051384;28;20384;-66
2022/04/18 05:36:14;;;;;;;7.43;3.72;;;;;;;;;;5050373;28;20139;-65
2022/04/18 05:38:40;;;;;;;8.00;3.95;;;;;;;;;;5051510;28;20123;-65
2022/04/18 05:41:06;;;;;;;6.47;3.78;;;;;;;;;;5051769;28;20044;-65
2022/04/18 05:43:32;;;;;;;8.15;4.10;;;;;;;;;;5054447;28;20044;-64
2022/04/18 05:45:58;;;;;;;8.00;4.25;;;;;;;;;;5052580;28;20041;-64
2022/04/18 05:48:24;;;;;;;6.78;4.22;;;;;;;;;;5049003;28;20051;-64
2022/04/18 05:50:50;;;;;;;6.90;3.95;;;;;;;;;;5048970;28;20607;-64
2022/04/18 05:53:17;;;;;;;8.60;4.75;;;;;;;;;;5048460;28;20068;-64
2022/04/18 05:55:43;;;;;;;6.72;3.97;;;;;;;;;;5048352;28;20041;-64
2022/04/18 05:58:09;;;;;;;6.38;4.13;;;;;;;;;;5048271;28;20051;-64
2022/04/18 06:00:35;;;;;;;6.47;4.18;;;;;;;;;;5048959;28;20420;-64
2022/04/18 06:03:02;;;;;;;8.52;4.18;;;;;;;;;;5048585;28;20334;-64
2022/04/18 06:05:28;;;;;;;6.20;3.80;;;;;;;;;;5047840;28;20103;-64
2022/04/18 06:07:54;;;;;;;7.65;3.88;;;;;;;;;;5048606;28;20084;-64
2022/04/18 06:10:21;;;;;;;5.82;3.70;;;;;;;;;;5048543;28;20056;-64
2022/04/18 06:12:47;;;;;;;6.80;3.67;;;;;;;;;;5048161;28;20064;-64
2022/04/18 06:15:13;;;;;;;7.05;3.97;;;;;;;;;;5048517;28;20534;-64
2022/04/18 06:17:39;;;;;;;6.93;4.10;;;;;;;;;;5052756;28;20056;-64
2022/04/18 06:20:05;;;;;;;5.65;3.53;;;;;;;;;;5052076;28;20048;-64
2022/04/18 06:22:31;;;;;;;5.90;4.15;;;;;;;;;;5051870;28;20041;-64
2022/04/18 06:24:57;;;;;;;6.78;4.20;;;;;;;;;;5052311;28;20134;-64
2022/04/18 06:27:23;;;;;;;13.82;4.32;;;;;;;;;;5051860;28;20071;-64
2022/04/18 06:29:50;;;;;;;9.50;4.30;;;;;;;;;;5051887;28;20088;-64
2022/04/18 06:32:16;;;;;;;7.15;3.72;;;;;;;;;;5051902;28;20107;-64
2022/04/18 06:34:42;;;;;;;7.30;3.33;;;;;;;;;;5050874;28;20041;-64
2022/04/18 06:37:08;;;;;;;5.78;3.97;;;;;;;;;;5051246;28;20052;-64
2022/04/18 06:39:36;;;;;;;6.53;3.72;;;;;;;;;;5051730;28;20414;-64
2022/04/18 06:42:02;;;;;;;9.55;3.88;;;;;;;;;;5051455;28;20051;-64
2022/04/18 06:44:28;;;;;;;6.22;3.63;;;;;;;;;;5051289;28;20041;-64
2022/04/18 06:46:54;;;;;;;7.18;3.28;;;;;;;;;;5051163;28;20044;-64
2022/04/18 06:49:20;;;;;;;6.55;3.38;;;;;;;;;;5050965;28;20454;-64
2022/04/18 06:51:47;;;;;;;7.93;3.55;;;;;;;;;;5050695;28;20040;-64
2022/04/18 06:54:13;;;;;;;7.20;3.33;;;;;;;;;;5051030;28;20051;-64
2022/04/18 06:59:24;;;;;;;8.02;3.80;;;;;;;;;;5050568;28;20063;-64
2022/04/18 07:01:50;;;;;;;12.55;4.05;;;;;;;;;;5051073;28;20052;-64
2022/04/18 07:04:16;;;;;;;22.95;4.15;;;;;;;;;;5050918;28;20080;-67
2022/04/18 07:06:43;;;;;;;13.57;3.40;;;;;;;;;;5051156;28;20510;-67
2022/04/18 07:09:09;;;;;;;7.30;3.47;;;;;;;;;;5051183;28;20045;-67
2022/04/18 07:11:36;;;;;;;11.57;3.15;;;;;;;;;;5051049;28;20048;-66
2022/04/18 07:14:02;;;;;;;13.65;3.20;;;;;;;;;;5050743;28;20045;-66
2022/04/18 07:16:30;;;;;;;8.23;3.30;;;;;;;;;;5051160;28;20103;-67
2022/04/18 07:18:57;;;;;;;7.38;3.25;;;;;;;;;;5050770;28;20047;-67
2022/04/18 07:21:23;;;;;;;6.38;3.55;;;;;;;;;;5051070;28;20055;-67
2022/04/18 07:23:49;;;;;;;7.32;3.00;;;;;;;;;;5050350;28;20048;-67
2022/04/18 07:26:15;;;;;;;7.20;3.03;;;;;;;;;;5050662;28;20052;-66
2022/04/18 07:28:41;;;;;;;5.65;3.03;;;;;;;;;;5049979;28;20041;-67
2022/04/18 07:31:07;;;;;;;5.97;3.15;;;;;;;;;;5048925;28;20059;-68
2022/04/18 07:33:34;;;;;;;11.30;3.22;;;;;;;;;;5032932;28;20045;-67
2022/04/18 07:36:00;;;;;;;4.68;2.80;;;;;;;;;;5049854;28;20053;-66
2022/04/18 07:41:10;;;;;;;6.30;3.10;;;;;;;;;;5050388;28;20079;-67
2022/04/18 07:43:37;;;;;;;5.45;3.10;;;;;;;;;;5050569;28;20071;-67
2022/04/18 07:46:04;;;;;;;5.05;2.88;;;;;;;;;;5050325;28;20053;-66
2022/04/18 07:48:33;;;;;;;7.72;3.15;;;;;;;;;;5050198;28;20098;-67
2022/04/18 07:53:45;;;;;;;5.30;3.03;;;;;;;;;;5050300;28;20048;-67
2022/04/18 07:56:12;;;;;;;6.47;3.20;;;;;;;;;;5031928;28;20170;-66
2022/04/18 07:58:38;;;;;;;4.72;2.70;;;;;;;;;;5049977;28;20041;-67
2022/04/18 08:01:04;;;;;;;4.85;2.78;;;;;;;;;;5050117;28;20447;-66
2022/04/18 08:03:34;;;;;;;7.55;3.53;;;;;;;;;;5047179;28;20193;-67
2022/04/18 08:06:00;;;;;;;4.20;2.72;;;;;;;;;;5049707;28;20103;-67
2022/04/18 08:08:26;;;;;;;4.97;2.88;;;;;;;;;;5049837;28;20499;-68
2022/04/18 08:10:52;;;;;;;5.95;2.83;;;;;;;;;;5048592;28;20051;-67
2022/04/18 08:13:18;;;;;;;5.20;3.03;;;;;;;;;;5049849;28;20045;-68
2022/04/18 08:15:44;;;;;;;6.45;3.13;;;;;;;;;;5049986;28;20086;-68
2022/04/18 08:18:11;;;;;;;5.07;2.83;;;;;;;;;;5049091;28;20041;-68
2022/04/18 08:20:37;;;;;;;5.05;2.33;;;;;;;;;;5049552;28;20094;-66
2022/04/18 08:23:04;;;;;;;4.95;2.60;;;;;;;;;;5049617;28;20160;-68
2022/04/18 08:25:30;;;;;;;4.88;2.90;;;;;;;;;;5049445;28;20056;-67
2022/04/18 08:27:56;;;;;;;4.18;2.97;;;;;;;;;;5049502;28;20056;-69
2022/04/18 08:30:22;;;;;;;5.43;2.85;;;;;;;;;;5049576;28;20730;-67
2022/04/18 08:32:48;;;;;;;4.28;2.42;;;;;;;;;;5049345;28;20041;-70
2022/04/18 08:35:14;;;;;;;4.57;2.58;;;;;;;;;;5048975;28;20199;-69
2022/04/18 08:37:40;;;;;;;3.60;2.22;;;;;;;;;;5049556;28;20525;-69
2022/04/18 08:40:08;;;;;;;5.20;2.72;;;;;;;;;;5047788;28;20471;-69
2022/04/18 08:42:35;;;;;;;5.35;3.10;;;;;;;;;;5049366;28;20041;-68
2022/04/18 08:45:02;;;;;;;5.03;3.30;;;;;;;;;;5048534;28;20502;-70
2022/04/18 08:52:58;;;;;;;4.53;2.35;;;;;;;;;;5047710;28;20463;-68
2022/04/18 08:55:24;;;;;;;5.68;2.63;;;;;;;;;;5046841;28;20045;-67
2022/04/18 08:57:50;;;;;;;4.20;2.72;;;;;;;;;;5045860;28;20443;-67
2022/04/18 09:00:16;;;;;;;5.00;2.47;;;;;;;;;;5045925;28;20499;-68
2022/04/18 09:02:42;;;;;;;4.60;2.78;;;;;;;;;;5046692;28;20069;-69
2022/04/18 09:05:12;;;;;;;4.63;2.88;;;;;;;;;;5045850;28;20072;-68
2022/04/18 09:07:42;;;;;;;5.18;2.70;;;;;;;;;;5047704;28;20119;-68
2022/04/18 09:10:08;;;;;;;4.40;2.65;;;;;;;;;;5048147;28;20049;-67
2022/04/18 09:12:34;;;;;;;5.05;2.50;;;;;;;;;;5047669;28;20053;-66
2022/04/18 09:15:00;;;;;;;4.40;2.70;;;;;;;;;;5048173;28;20422;-67
2022/04/18 09:17:32;;;;;;;5.07;2.88;;;;;;;;;;5048226;28;20129;-66
2022/04/18 09:20:04;;;;;;;3.83;2.15;;;;;;;;;;5048019;28;20049;-66
2022/04/18 09:22:30;;;;;;;3.75;2.50;;;;;;;;;;5048374;28;20084;-66
2022/04/18 09:24:56;;;;;;;5.78;2.60;;;;;;;;;;5048519;28;20135;-65
2022/04/18 09:27:29;;;;;;;5.00;2.60;;;;;;;;;;5048675;28;20124;-66
2022/04/18 09:30:02;;;;;;;4.35;2.65;;;;;;;;;;5048339;28;20049;-66
2022/04/18 09:32:28;;;;;;;4.38;2.28;;;;;;;;;;5048401;28;20045;-66
2022/04/18 09:35:00;;;;;;;5.28;2.70;;;;;;;;;;5047605;28;20041;-67
2022/04/18 09:37:29;;;;;;;4.43;2.63;;;;;;;;;;5048336;28;20049;-66
2022/04/18 09:39:55;;;;;;;5.40;2.63;;;;;;;;;;5047765;28;20056;-66
2022/04/18 09:42:22;;;;;;;5.30;2.90;;;;;;;;;;5047866;28;20045;-66
2022/04/18 09:44:49;;;;;;;4.40;2.60;;;;;;;;;;5030739;28;20146;-66
2022/04/18 09:47:16;;;;;;;7.57;2.40;;;;;;;;;;5048023;28;20175;-66
2022/04/18 09:49:42;;;;;;;3.70;2.28;;;;;;;;;;5047887;28;20403;-66
2022/04/18 09:52:11;;;;;;;4.22;2.58;;;;;;;;;;5052147;28;20132;-66
2022/04/18 09:54:41;;;;;;;4.25;2.30;;;;;;;;;;5052784;28;20059;-68
2022/04/18 09:57:07;;;;;;;4.97;2.20;;;;;;;;;;5052295;28;20045;-66
2022/04/18 09:59:33;;;;;;;3.88;2.20;;;;;;;;;;5051634;28;20131;-66
2022/04/18 10:02:00;;;;;;;4.95;2.50;;;;;;;;;;5052319;28;20040;-66
2022/04/18 10:04:26;;;;;;;4.05;2.42;;;;;;;;;;5051651;28;20051;-67
2022/04/18 10:06:53;;;;;;;5.55;2.30;;;;;;;;;;5051143;28;20127;-68
2022/04/18 10:09:20;;;;;;;4.32;2.25;;;;;;;;;;5052358;28;20502;-65
2022/04/18 10:11:46;;;;;;;4.03;2.25;;;;;;;;;;5051694;28;20453;-66
2022/04/18 10:14:12;;;;;;;3.78;2.40;;;;;;;;;;5051829;28;20044;-66
2022/04/18 10:16:39;;;;;;;4.03;2.22;;;;;;;;;;5052579;28;20132;-66
2022/04/18 10:19:12;;;;;;;4.65;2.40;;;;;;;;;;5052185;28;20045;-67
2022/04/18 10:21:42;;;;;;;5.32;2.22;;;;;;;;;;5051789;28;20461;-67
2022/04/18 10:24:18;;;;;;;4.10;2.20;;;;;;;;;;5051331;28;20178;-68
2022/04/18 10:27:12;;;;;;;3.97;2.33;;;;;;;;;;5051525;28;20531;-67
2022/04/18 10:29:41;;;;;;;4.28;2.70;;;;;;;;;;5051648;28;20095;-69
2022/04/18 10:32:08;;;;;;;4.78;2.40;;;;;;;;;;5052182;28;20048;-68
2022/04/18 10:34:35;;;;;;;4.30;2.20;;;;;;;;;;5050582;28;20471;-67
2022/04/18 10:37:02;;;;;;;4.28;2.38;;;;;;;;;;5051143;28;20049;-67
2022/04/18 10:39:36;;;;;;;6.03;2.75;;;;;;;;;;5051884;28;20045;-67
2022/04/18 10:42:24;;;;;;;4.70;2.40;;;;;;;;;;5050921;28;20045;-67
2022/04/18 10:44:57;;;;;;;4.35;2.20;;;;;;;;;;5051926;28;20096;-68
2022/04/18 10:47:23;;;;;;;5.80;2.95;;;;;;;;;;5051290;28;20047;-67
2022/04/18 10:50:09;;;;;;;5.18;2.40;;;;;;;;;;5050513;28;20057;-67
2022/04/18 10:52:35;;;;;;;6.15;3.00;;;;;;;;;;5050922;28;20670;-68
2022/04/18 10:55:01;;;;;;;4.28;2.42;;;;;;;;;;5051663;28;20534;-67
2022/04/18 10:57:28;;;;;;;5.20;2.50;;;;;;;;;;5033563;28;20085;-67
2022/04/18 10:59:54;;;;;;;5.57;2.85;;;;;;;;;;5050937;28;20045;-67
2022/04/18 11:02:39;;;;;;;4.93;2.47;;;;;;;;;;5049651;28;20140;-67
2022/04/18 11:05:06;;;;;;;4.93;2.83;;;;;;;;;;5050873;28;20488;-67
2022/04/18 11:07:43;;;;;;;4.97;2.30;;;;;;;;;;5051210;28;20388;-68
2022/04/18 11:10:20;;;;;;;7.03;2.88;;;;;;;;;;5050391;28;20045;-69
2022/04/18 11:12:46;;;;;;;6.75;2.80;;;;;;;;;;5050887;28;20709;-68
2022/04/18 11:15:12;;;;;;;6.25;2.47;;;;;;;;;;5050229;28;20080;-69
2022/04/18 11:17:39;;;;;;;5.88;2.60;;;;;;;;;;5050904;28;20078;-69
2022/04/18 11:20:24;;;;;;;6.15;2.65;;;;;;;;;;5048016;28;20045;-68
2022/04/18 11:23:09;;;;;;;4.65;2.40;;;;;;;;;;5030881;28;20164;-69
2022/04/18 11:25:50;;;;;;;5.65;2.40;;;;;;;;;;5033418;28;20107;-67
2022/04/18 11:28:16;;;;;;;4.72;2.50;;;;;;;;;;5030675;28;20041;-69
2022/04/18 11:30:42;;;;;;;5.43;2.70;;;;;;;;;;5030926;28;20042;-69
2022/04/18 11:33:08;;;;;;;4.72;2.30;;;;;;;;;;5034970;28;20060;-69
2022/04/18 11:35:35;;;;;;;5.53;2.53;;;;;;;;;;5050493;28;20122;-69
2022/04/18 11:38:08;;;;;;;4.78;2.53;;;;;;;;;;5036800;28;20068;-70
2022/04/18 11:40:38;;;;;;;5.13;2.13;;;;;;;;;;5048961;28;20495;-68
2022/04/18 11:43:11;;;;;;;4.97;2.42;;;;;;;;;;5050169;28;20044;-70
2022/04/18 11:45:37;;;;;;;4.20;2.10;;;;;;;;;;5050871;28;20049;-70
2022/04/18 11:48:04;;;;;;;5.97;2.60;;;;;;;;;;5050273;28;20037;-70
2022/04/18 11:50:32;;;;;;;4.28;1.90;;;;;;;;;;5049991;28;20041;-69
2022/04/18 11:53:06;;;;;;;4.07;2.20;;;;;;;;;;5048929;28;20053;-69
2022/04/18 11:55:41;;;;;;;4.18;1.90;;;;;;;;;;5050370;28;20072;-70
2022/04/18 11:58:09;;;;;;;4.28;2.40;;;;;;;;;;5049754;28;20045;-69
2022/04/18 12:08:50;;;;;;;5.55;2.08;;;;;;;;;;5031981;28;20132;-68
2022/04/18 12:11:17;;;;;;;17.65;2.38;;;;;;;;;;5049514;28;20072;-68
2022/04/18 12:13:49;;;;;;;11.10;2.22;;;;;;;;;;5048374;28;20506;-66
2022/04/18 12:16:19;;;;;;;4.43;2.22;;;;;;;;;;5049298;28;20110;-68
2022/04/18 12:18:45;;;;;;;8.13;2.00;;;;;;;;;;5049677;28;20436;-68
2022/04/18 12:21:15;;;;;;;7.15;2.53;;;;;;;;;;5049606;28;20041;-68
2022/04/18 12:23:41;;;;;;;9.88;2.60;;;;;;;;;;5049291;28;20419;-67
2022/04/18 12:26:11;;;;;;;5.35;2.47;;;;;;;;;;5049112;28;20491;-67
2022/04/18 12:28:38;;;;;;;6.10;2.00;;;;;;;;;;5049200;28;20037;-68
2022/04/18 12:31:08;;;;;;;4.13;2.00;;;;;;;;;;5049238;28;20053;-67
2022/04/18 12:33:34;;;;;;;5.47;2.28;;;;;;;;;;5031723;28;20044;-68
2022/04/18 12:36:06;;;;;;;6.90;2.05;;;;;;;;;;5145879;27;20573;-67
2022/04/18 12:38:39;;;;;;;4.43;2.05;;;;;;;;;;5125497;28;20050;-66
2022/04/18 12:41:05;;;;;;;4.53;2.20;;;;;;;;;;5126088;28;20051;-67
2022/04/18 12:43:32;;;;;;;4.30;1.98;;;;;;;;;;5115787;28;20051;-67
2022/04/18 12:46:00;;;;;;;6.00;2.45;;;;;;;;;;5106414;28;20068;-66
2022/04/18 12:48:26;;;;;;;6.75;2.08;;;;;;;;;;5106005;28;20498;-66
2022/04/18 12:50:53;;;;;;;4.40;2.10;;;;;;;;;;5104937;28;20055;-66
2022/04/18 12:53:20;;;;;;;5.72;2.10;;;;;;;;;;5106588;28;20043;-66
2022/04/18 12:55:47;;;;;;;4.07;1.70;;;;;;;;;;5106228;28;20040;-65
2022/04/18 12:58:18;;;;;;;4.93;2.30;;;;;;;;;;5109315;28;20039;-65
2022/04/18 13:00:45;;;;;;;4.97;2.00;;;;;;;;;;5125840;27;20088;-65
2022/04/18 13:03:11;;;;;;;5.43;2.22;;;;;;;;;;5126695;27;20099;-65
2022/04/18 13:05:42;;;;;;;4.45;2.10;;;;;;;;;;5121554;28;20040;-67
2022/04/18 13:08:08;;;;;;;3.63;1.55;;;;;;;;;;5105892;28;20050;-65
2022/04/18 13:10:35;;;;;;;6.60;1.90;;;;;;;;;;5106827;28;20090;-66
2022/04/18 13:13:08;;;;;;;4.88;2.35;;;;;;;;;;5123000;28;20089;-66
2022/04/18 13:15:35;;;;;;;4.68;2.15;;;;;;;;;;5126192;28;20047;-66
2022/04/18 13:18:04;;;;;;;5.63;1.63;;;;;;;;;;5124279;28;20039;-65
2022/04/18 13:20:33;;;;;;;4.13;2.05;;;;;;;;;;5126529;27;20051;-66
2022/04/18 13:23:00;;;;;;;5.18;1.80;;;;;;;;;;5125598;28;20078;-66
2022/04/18 13:25:26;;;;;;;8.90;2.00;;;;;;;;;;5122030;27;20054;-66
2022/04/18 13:27:53;;;;;;;4.70;1.83;;;;;;;;;;5121278;28;20035;-67
2022/04/18 13:30:20;;;;;;;4.43;1.63;;;;;;;;;;5125886;27;20038;-66
2022/04/18 13:32:46;;;;;;;4.53;1.80;;;;;;;;;;5121724;27;20039;-67
2022/04/18 13:35:12;;;;;;;4.28;1.92;;;;;;;;;;5124150;27;20050;-67
2022/04/18 13:37:38;;;;;;;3.13;1.70;;;;;;;;;;5125627;28;20475;-67
2022/04/18 13:40:05;;;;;;;4.85;1.90;;;;;;;;;;5121015;28;20071;-67
2022/04/18 13:42:31;;;;;;;3.55;1.80;;;;;;;;;;5125996;28;20044;-67
2022/04/18 13:44:57;;;;;;;6.03;2.08;;;;;;;;;;5114555;28;20039;-67
2022/04/18 13:47:24;;;;;;;4.97;1.75;;;;;;;;;;5090759;28;20092;-67
2022/04/18 13:49:50;;;;;;;6.13;2.00;;;;;;;;;;5091573;28;20067;-67
2022/04/18 13:52:16;;;;;;;3.95;2.00;;;;;;;;;;5092383;28;20040;-67
2022/04/18 13:54:42;;;;;;;4.18;1.92;;;;;;;;;;5092259;28;20048;-67
2022/04/18 13:57:08;;;;;;;6.30;1.67;;;;;;;;;;5092116;28;20044;-67
2022/04/18 13:59:35;;;;;;;3.17;1.80;;;;;;;;;;5096814;28;20032;-67
2022/04/18 14:02:01;;;;;;;5.60;1.98;;;;;;;;;;5112032;28;20040;-67
2022/04/18 14:04:27;;;;;;;5.55;2.05;;;;;;;;;;5110822;28;20043;-67
2022/04/18 14:06:55;;;;;;;3.78;1.70;;;;;;;;;;5102920;28;20051;-67
2022/04/18 14:09:21;;;;;;;3.58;1.60;;;;;;;;;;5104689;28;20048;-67
2022/04/18 14:11:47;;;;;;;3.88;1.67;;;;;;;;;;5109910;28;20039;-68
2022/04/18 14:20:20;;;;;;;4.00;1.45;;;;;;;;;;5110845;28;20417;-67
2022/04/18 14:22:29;;;;;;;3.60;1.70;;;;;;;;;;5095032;28;20413;-68
2022/04/18 14:24:56;;;;;;;4.32;2.03;;;;;;;;;;5096728;28;20043;-66
2022/04/18 14:27:22;;;;;;;5.55;2.17;;;;;;;;;;5078614;28;20436;-67
2022/04/18 14:29:48;;;;;;;2.83;1.40;;;;;;;;;;5071011;28;20132;-67
2022/04/18 14:32:14;;;;;;;3.75;1.83;;;;;;;;;;5071498;28;20574;-67
2022/04/18 14:34:41;;;;;;;3.65;1.63;;;;;;;;;;5070463;28;20426;-68
2022/04/18 14:37:07;;;;;;;2.40;1.60;;;;;;;;;;5068446;28;20056;-67
2022/04/18 14:39:33;;;;;;;3.58;1.60;;;;;;;;;;5069492;28;20040;-67
2022/04/18 14:41:59;;;;;;;2.50;1.50;;;;;;;;;;5065767;28;20397;-68
2022/04/18 14:44:25;;;;;;;2.70;1.50;;;;;;;;;;5069762;28;20325;-67
2022/04/18 14:46:51;;;;;;;3.80;1.30;;;;;;;;;;5068160;28;20041;-68
2022/04/18 14:49:17;;;;;;;2.72;1.60;;;;;;;;;;5068824;28;20076;-67
2022/04/18 14:51:43;;;;;;;2.58;1.52;;;;;;;;;;5069635;28;20078;-67
2022/04/18 14:54:10;;;;;;;2.80;1.60;;;;;;;;;;5065367;28;20044;-69
2022/04/18 14:56:36;;;;;;;2.60;1.52;;;;;;;;;;5070499;28;20071;-67
2022/04/18 14:59:02;;;;;;;4.80;2.03;;;;;;;;;;5064967;28;20051;-65
2022/04/18 15:01:28;;;;;;;2.38;1.38;;;;;;;;;;5050474;28;20049;-67
2022/04/18 15:03:55;;;;;;;3.03;1.45;;;;;;;;;;5050335;28;20040;-67
2022/04/18 15:06:22;;;;;;;3.83;1.80;;;;;;;;;;5053805;28;20060;-66
2022/04/18 15:08:48;;;;;;;2.42;1.27;;;;;;;;;;5049680;28;20360;-67
2022/04/18 15:11:14;;;;;;;4.72;1.80;;;;;;;;;;5059333;28;20127;-66
2022/04/18 15:13:40;;;;;;;3.35;1.55;;;;;;;;;;5069322;28;20053;-66
2022/04/18 15:16:07;;;;;;;3.22;1.60;;;;;;;;;;5067092;28;20052;-66
2022/04/18 15:18:33;;;;;;;2.63;1.70;;;;;;;;;;5069403;28;20082;-66
2022/04/18 15:20:59;;;;;;;2.88;1.85;;;;;;;;;;5068103;28;20036;-66